createdAt,value
2022-12-18T00:00:07.854Z,-6.88
2022-12-18T00:02:35.924Z,-6.59
2022-12-18T00:05:05.707Z,-6.41
2022-12-18T00:07:33.692Z,-6.86
2022-12-18T00:10:01.600Z,-6.71
2022-12-18T00:12:30.150Z,-6.79
2022-12-18T00:14:58.407Z,-6.90
2022-12-18T00:17:26.392Z,-7.08
2022-12-18T00:19:54.358Z,-7.14
2022-12-18T00:22:23.737Z,-7.03
2022-12-18T00:24:51.754Z,-6.78
2022-12-18T00:27:19.767Z,-6.64
2022-12-18T00:29:47.752Z,-6.63
2022-12-18T00:32:15.735Z,-6.79
2022-12-18T00:34:43.711Z,-6.70
2022-12-18T00:37:15.568Z,-6.70
2022-12-18T00:39:47.670Z,-6.59
2022-12-18T00:42:32.868Z,-6.77
2022-12-18T00:45:00.856Z,-6.58
2022-12-18T00:47:28.812Z,-6.62
2022-12-18T00:49:56.782Z,-6.52
2022-12-18T00:52:24.836Z,-6.77
2022-12-18T00:54:54.194Z,-6.61
2022-12-18T00:57:22.200Z,-6.69
2022-12-18T00:59:50.382Z,-6.80
2022-12-18T01:02:18.665Z,-6.95
2022-12-18T01:04:46.863Z,-6.89
2022-12-18T01:07:14.826Z,-6.67
2022-12-18T01:09:42.773Z,-7.10
2022-12-18T01:12:12.208Z,-6.72
2022-12-18T01:14:40.220Z,-6.73
2022-12-18T01:17:08.214Z,-6.55
2022-12-18T01:19:36.354Z,-6.47
2022-12-18T01:22:04.381Z,-6.49
2022-12-18T01:24:32.345Z,-6.69
2022-12-18T01:27:00.333Z,-6.49
2022-12-18T01:29:29.878Z,-6.72
2022-12-18T01:31:58.532Z,-6.81
2022-12-18T01:34:26.630Z,-6.47
2022-12-18T01:36:54.592Z,-6.40
2022-12-18T01:39:22.628Z,-6.59
2022-12-18T01:42:06.206Z,-6.66
2022-12-18T01:45:23.647Z,-6.43
2022-12-18T01:47:54.154Z,-6.58
2022-12-18T01:50:25.573Z,-6.66
2022-12-18T01:52:56.081Z,-6.67
2022-12-18T01:55:27.160Z,-6.83
2022-12-18T01:57:57.456Z,-6.94
2022-12-18T02:00:28.400Z,-6.94
2022-12-18T02:02:56.798Z,-6.82
2022-12-18T02:05:32.925Z,-6.72
2022-12-18T02:08:10.576Z,-6.86
2022-12-18T02:10:48.014Z,-6.85
2022-12-18T02:13:21.895Z,-6.88
2022-12-18T02:16:02.894Z,-6.90
2022-12-18T02:18:34.563Z,-6.71
2022-12-18T02:21:13.713Z,-6.75
2022-12-18T02:23:55.354Z,-6.79
2022-12-18T02:26:29.523Z,-6.88
2022-12-18T02:29:04.416Z,-6.91
2022-12-18T02:31:52.009Z,-6.97
2022-12-18T02:34:21.863Z,-6.86
2022-12-18T02:36:52.184Z,-6.75
2022-12-18T02:39:23.795Z,-6.67
2022-12-18T02:41:54.005Z,-7.00
2022-12-18T02:44:21.977Z,-6.68
2022-12-18T02:46:53.794Z,-6.80
2022-12-18T02:49:33.705Z,-6.70
2022-12-18T02:52:09.872Z,-6.69
2022-12-18T02:54:57.349Z,-6.77
2022-12-18T02:57:36.082Z,-7.00
2022-12-18T03:00:08.740Z,-6.78
2022-12-18T03:02:42.577Z,-6.87
2022-12-18T03:05:16.215Z,-6.97
2022-12-18T03:07:49.191Z,-6.83
2022-12-18T03:10:23.925Z,-6.66
2022-12-18T03:12:56.785Z,-6.77
2022-12-18T03:15:28.964Z,-6.65
2022-12-18T03:18:01.829Z,-6.50
2022-12-18T03:20:33.671Z,-6.69
2022-12-18T03:23:08.441Z,-6.63
2022-12-18T03:25:40.925Z,-6.83
2022-12-18T03:28:14.081Z,-6.49
2022-12-18T03:30:46.198Z,-6.80
2022-12-18T03:33:20.766Z,-6.64
2022-12-18T03:35:49.050Z,-6.77
2022-12-18T03:38:17.168Z,-6.84
2022-12-18T03:40:58.221Z,-6.93
2022-12-18T03:43:38.900Z,-6.66
2022-12-18T03:46:12.010Z,-6.71
2022-12-18T03:48:45.913Z,-6.66
2022-12-18T03:51:20.980Z,-7.22
2022-12-18T03:53:54.515Z,-6.68
2022-12-18T03:56:24.733Z,-6.58
2022-12-18T03:58:56.453Z,-6.65
2022-12-18T04:01:33.257Z,-6.51
2022-12-18T04:04:03.154Z,-6.88
2022-12-18T04:06:32.599Z,-6.53
2022-12-18T04:09:01.146Z,-6.47
2022-12-18T04:11:29.210Z,-6.61
2022-12-18T04:14:02.667Z,-6.60
2022-12-18T04:16:32.625Z,-6.63
2022-12-18T04:19:00.673Z,-6.76
2022-12-18T04:21:28.610Z,-6.69
2022-12-18T04:23:56.632Z,-6.69
2022-12-18T04:26:24.750Z,-7.09
2022-12-18T04:28:52.789Z,-6.76
2022-12-18T04:31:22.289Z,-6.80
2022-12-18T04:33:50.296Z,-7.06
2022-12-18T04:36:18.364Z,-6.73
2022-12-18T04:38:46.299Z,-7.10
2022-12-18T04:41:15.789Z,-7.06
2022-12-18T04:43:44.943Z,-6.77
2022-12-18T04:46:12.926Z,-6.82
2022-12-18T04:48:42.460Z,-6.86
2022-12-18T04:51:10.421Z,-6.75
2022-12-18T04:53:38.703Z,-6.64
2022-12-18T04:56:08.393Z,-6.73
2022-12-18T04:58:36.423Z,-6.70
2022-12-18T05:01:04.858Z,-6.92
2022-12-18T05:03:33.030Z,-6.79
2022-12-18T05:06:02.809Z,-7.02
2022-12-18T05:08:30.754Z,-6.76
2022-12-18T05:11:02.201Z,-6.82
2022-12-18T05:13:30.494Z,-6.86
2022-12-18T05:15:58.663Z,-6.94
2022-12-18T05:18:27.419Z,-6.92
2022-12-18T05:20:56.482Z,-6.95
2022-12-18T05:23:26.898Z,-6.87
2022-12-18T05:25:55.290Z,-7.01
2022-12-18T05:28:24.916Z,-6.77
2022-12-18T05:30:54.515Z,-6.86
2022-12-18T05:33:24.446Z,-6.93
2022-12-18T05:35:53.648Z,-7.00
2022-12-18T05:38:22.474Z,-6.90
2022-12-18T05:40:52.996Z,-7.02
2022-12-18T05:43:22.754Z,-7.09
2022-12-18T05:45:52.240Z,-7.04
2022-12-18T05:48:22.721Z,-7.08
2022-12-18T05:50:54.053Z,-7.13
2022-12-18T05:53:23.929Z,-7.26
2022-12-18T05:55:54.271Z,-6.96
2022-12-18T05:58:23.173Z,-7.11
2022-12-18T06:00:52.503Z,-7.02
2022-12-18T06:03:21.454Z,-7.11
2022-12-18T06:05:50.436Z,-7.01
2022-12-18T06:08:18.413Z,-7.59
2022-12-18T06:10:54.514Z,-6.91
2022-12-18T06:13:22.680Z,-6.98
2022-12-18T06:15:50.688Z,-7.02
2022-12-18T06:18:19.305Z,-7.12
2022-12-18T06:20:47.405Z,-6.93
2022-12-18T06:23:15.350Z,-7.00
2022-12-18T06:25:43.436Z,-6.92
2022-12-18T06:28:12.803Z,-7.03
2022-12-18T06:30:54.441Z,-7.04
2022-12-18T06:33:22.435Z,-7.19
2022-12-18T06:35:50.379Z,-7.27
2022-12-18T06:38:18.321Z,-7.23
2022-12-18T06:40:46.230Z,-7.37
2022-12-18T06:43:15.565Z,-7.27
2022-12-18T06:45:43.651Z,-7.32
2022-12-18T06:48:11.718Z,-7.42
2022-12-18T06:50:39.608Z,-7.35
2022-12-18T06:53:07.557Z,-7.39
2022-12-18T06:55:36.359Z,-7.33
2022-12-18T06:58:04.626Z,-7.30
2022-12-18T07:00:34.014Z,-7.48
2022-12-18T07:03:02.767Z,-7.14
2022-12-18T07:05:34.994Z,-7.25
2022-12-18T07:08:03.945Z,-7.17
2022-12-18T07:10:36.440Z,-7.18
2022-12-18T07:13:05.305Z,-7.27
2022-12-18T07:15:35.328Z,-7.18
2022-12-18T07:18:04.134Z,-7.09
2022-12-18T07:20:33.685Z,-7.08
2022-12-18T07:23:04.317Z,-7.30
2022-12-18T07:25:32.266Z,-7.21
2022-12-18T07:28:00.198Z,-7.44
2022-12-18T07:30:28.177Z,-7.36
2022-12-18T07:32:57.485Z,-7.23
2022-12-18T07:35:25.664Z,-7.23
2022-12-18T07:37:53.688Z,-7.21
2022-12-18T07:40:21.621Z,-7.49
2022-12-18T07:42:49.559Z,-7.39
2022-12-18T07:45:17.640Z,-7.64
2022-12-18T07:47:45.562Z,-7.50
2022-12-18T07:50:15.311Z,-7.24
2022-12-18T07:52:43.270Z,-7.41
2022-12-18T07:55:11.258Z,-7.35
2022-12-18T07:57:50.701Z,-7.45
2022-12-18T08:00:19.738Z,-7.47
2022-12-18T08:02:49.506Z,-7.30
2022-12-18T08:05:19.373Z,-7.26
2022-12-18T08:07:47.451Z,-7.53
2022-12-18T08:10:15.824Z,-7.31
2022-12-18T08:12:43.863Z,-7.28
2022-12-18T08:15:12.300Z,-7.36
2022-12-18T08:17:40.307Z,-7.43
2022-12-18T08:20:09.336Z,-7.48
2022-12-18T08:22:38.690Z,-7.49
2022-12-18T08:25:07.644Z,-7.45
2022-12-18T08:27:35.688Z,-7.61
2022-12-18T08:30:04.060Z,-7.84
2022-12-18T08:32:33.879Z,-7.63
2022-12-18T08:35:01.867Z,-7.39
2022-12-18T08:37:29.914Z,-7.44
2022-12-18T08:39:59.241Z,-7.26
2022-12-18T08:42:44.816Z,-7.31
2022-12-18T08:45:13.008Z,-7.36
2022-12-18T08:47:40.947Z,-7.35
2022-12-18T08:50:09.503Z,-7.18
2022-12-18T08:52:37.497Z,-7.30
2022-12-18T08:55:09.372Z,-7.45
2022-12-18T08:57:37.377Z,-7.44
2022-12-18T09:00:06.368Z,-7.14
2022-12-18T09:02:34.794Z,-7.62
2022-12-18T09:05:02.821Z,-7.55
2022-12-18T09:07:30.808Z,-7.36
2022-12-18T09:09:58.746Z,-7.17
2022-12-18T09:12:28.122Z,-7.05
2022-12-18T09:14:57.327Z,-7.07
2022-12-18T09:17:25.362Z,-7.32
2022-12-18T09:19:54.073Z,-7.51
2022-12-18T09:22:22.080Z,-7.23
2022-12-18T09:24:52.151Z,-7.13
2022-12-18T09:27:20.794Z,-7.00
2022-12-18T09:29:50.549Z,-7.01
2022-12-18T09:32:22.357Z,-7.16
2022-12-18T09:34:50.707Z,-7.10
2022-12-18T09:37:20.006Z,-7.06
2022-12-18T09:39:49.490Z,-6.88
2022-12-18T09:42:22.574Z,-6.94
2022-12-18T09:44:55.755Z,-7.00
2022-12-18T09:47:27.329Z,-7.04
2022-12-18T09:49:58.979Z,-6.71
2022-12-18T09:52:30.919Z,-7.05
2022-12-18T09:55:04.287Z,-6.81
2022-12-18T09:57:38.947Z,-6.70
2022-12-18T10:00:19.084Z,-6.89
2022-12-18T10:02:48.822Z,-6.88
2022-12-18T10:05:20.537Z,-6.50
2022-12-18T10:07:57.928Z,-6.42
2022-12-18T10:10:35.364Z,-6.50
2022-12-18T10:13:15.249Z,-6.43
2022-12-18T10:15:57.129Z,-6.27
2022-12-18T10:18:39.992Z,-6.19
2022-12-18T10:21:14.757Z,-6.19
2022-12-18T10:23:51.845Z,-6.11
2022-12-18T10:26:20.006Z,-6.16
2022-12-18T10:28:49.908Z,-6.24
2022-12-18T10:31:24.501Z,-6.30
2022-12-18T10:33:53.347Z,-6.29
2022-12-18T10:36:22.353Z,-6.30
2022-12-18T10:38:52.122Z,-6.38
2022-12-18T10:41:29.352Z,-6.26
2022-12-18T10:44:17.071Z,-6.34
2022-12-18T10:46:47.646Z,-6.12
2022-12-18T10:49:25.470Z,-6.29
2022-12-18T10:52:06.303Z,-6.03
2022-12-18T10:54:37.126Z,-5.98
2022-12-18T10:57:19.255Z,-6.22
2022-12-18T10:59:55.748Z,-5.88
2022-12-18T11:02:35.464Z,-5.94
2022-12-18T11:05:06.332Z,-6.24
2022-12-18T11:07:52.652Z,-5.74
2022-12-18T11:10:22.134Z,-5.70
2022-12-18T11:12:50.638Z,-5.63
2022-12-18T11:15:22.845Z,-5.96
2022-12-18T11:17:54.046Z,-5.97
2022-12-18T11:20:29.859Z,-5.79
2022-12-18T11:22:59.741Z,-5.56
2022-12-18T11:25:32.296Z,-5.44
2022-12-18T11:28:03.734Z,-5.43
2022-12-18T11:30:33.310Z,-5.75
2022-12-18T11:33:07.348Z,-6.00
2022-12-18T11:35:42.479Z,-5.73
2022-12-18T11:38:20.906Z,-5.72
2022-12-18T11:40:55.388Z,-5.69
2022-12-18T11:43:29.262Z,-5.60
2022-12-18T11:46:04.783Z,-5.53
2022-12-18T11:48:39.401Z,-5.92
2022-12-18T11:51:14.875Z,-6.23
2022-12-18T11:53:42.855Z,-6.24
2022-12-18T11:56:29.827Z,-5.80
2022-12-18T11:59:10.662Z,-5.41
2022-12-18T12:01:48.604Z,-5.42
2022-12-18T12:04:38.297Z,-5.72
2022-12-18T12:07:20.813Z,-5.35
2022-12-18T12:09:57.727Z,-5.64
2022-12-18T12:12:48.894Z,-5.60
2022-12-18T12:15:29.538Z,-5.49
2022-12-18T12:18:11.094Z,-5.13
2022-12-18T12:20:49.813Z,-5.38
2022-12-18T12:23:39.543Z,-5.64
2022-12-18T12:26:11.816Z,-5.41
2022-12-18T12:28:59.519Z,-5.41
2022-12-18T12:31:44.456Z,-5.29
2022-12-18T12:34:20.040Z,-5.50
2022-12-18T12:37:03.478Z,-5.32
2022-12-18T12:39:34.138Z,-5.29
2022-12-18T12:42:21.107Z,-4.93
2022-12-18T12:44:56.421Z,-5.14
2022-12-18T12:47:29.855Z,-4.90
2022-12-18T12:50:00.833Z,-5.12
2022-12-18T12:52:37.080Z,-4.96
2022-12-18T12:55:14.577Z,-4.94
2022-12-18T12:57:48.103Z,-5.13
2022-12-18T13:00:18.790Z,-5.10
2022-12-18T13:02:53.503Z,-5.13
2022-12-18T13:05:28.262Z,-4.81
2022-12-18T13:08:04.512Z,-4.72
2022-12-18T13:10:37.112Z,-4.41
2022-12-18T13:13:09.000Z,-4.35
2022-12-18T13:15:41.955Z,-4.13
2022-12-18T13:18:19.709Z,-4.60
2022-12-18T13:20:55.161Z,-4.11
2022-12-18T13:23:37.434Z,-3.98
2022-12-18T13:26:34.154Z,-4.19
2022-12-18T13:29:05.323Z,-3.97
2022-12-18T13:32:10.272Z,-3.71
2022-12-18T13:34:38.824Z,-3.66
2022-12-18T13:37:55.896Z,-3.64
2022-12-18T13:40:58.971Z,-3.42
2022-12-18T13:43:38.608Z,-3.27
2022-12-18T13:46:19.162Z,-3.24
2022-12-18T13:48:54.253Z,-3.25
2022-12-18T13:51:23.290Z,-3.29
2022-12-18T13:53:54.277Z,-3.42
2022-12-18T13:56:25.443Z,-3.29
2022-12-18T13:59:24.909Z,-3.34
2022-12-18T14:01:56.337Z,-3.21
2022-12-18T14:04:28.417Z,-3.21
2022-12-18T14:07:01.089Z,-3.19
2022-12-18T14:09:32.751Z,-3.20
2022-12-18T14:12:24.957Z,-3.37
2022-12-18T14:14:55.607Z,-3.67
2022-12-18T14:17:25.255Z,-3.48
2022-12-18T14:19:53.961Z,-3.86
2022-12-18T14:22:28.746Z,-3.65
2022-12-18T14:25:16.137Z,-3.59
2022-12-18T14:27:46.050Z,-3.81
2022-12-18T14:30:29.562Z,-3.76
2022-12-18T14:33:05.657Z,-3.85
2022-12-18T14:35:34.140Z,-3.99
2022-12-18T14:38:27.058Z,-3.94
2022-12-18T14:40:56.787Z,-3.94
2022-12-18T14:43:25.007Z,-3.87
2022-12-18T14:45:54.840Z,-3.90
2022-12-18T14:48:26.917Z,-4.07
2022-12-18T14:51:00.601Z,-3.82
2022-12-18T14:53:37.284Z,-3.75
2022-12-18T14:56:13.140Z,-3.80
2022-12-18T14:58:41.428Z,-3.85
2022-12-18T15:01:10.815Z,-4.01
2022-12-18T15:03:45.863Z,-4.04
2022-12-18T15:06:19.722Z,-4.04
2022-12-18T15:08:47.711Z,-4.06
2022-12-18T15:11:30.736Z,-4.13
2022-12-18T15:14:01.228Z,-4.19
2022-12-18T15:16:31.278Z,-4.38
2022-12-18T15:18:59.328Z,-4.08
2022-12-18T15:21:31.621Z,-4.26
2022-12-18T15:24:01.032Z,-4.07
2022-12-18T15:26:39.685Z,-3.99
2022-12-18T15:29:11.379Z,-4.06
2022-12-18T15:31:44.949Z,-3.92
2022-12-18T15:34:21.574Z,-4.02
2022-12-18T15:36:49.681Z,-4.20
2022-12-18T15:39:17.706Z,-4.03
2022-12-18T15:42:05.873Z,-3.93
2022-12-18T15:44:32.954Z,-4.05
2022-12-18T15:47:02.342Z,-4.18
2022-12-18T15:49:30.324Z,-4.00
2022-12-18T15:52:00.851Z,-3.97
2022-12-18T15:54:46.594Z,-3.93
2022-12-18T15:57:27.603Z,-3.93
2022-12-18T15:59:58.989Z,-3.89
2022-12-18T16:02:29.495Z,-3.95
2022-12-18T16:04:58.238Z,-4.14
2022-12-18T16:07:29.134Z,-4.07
2022-12-18T16:09:59.052Z,-4.02
2022-12-18T16:12:29.135Z,-3.95
2022-12-18T16:15:03.050Z,-3.97
2022-12-18T16:17:32.547Z,-3.96
2022-12-18T16:20:00.912Z,-4.03
2022-12-18T16:22:30.934Z,-3.92
2022-12-18T16:25:00.128Z,-3.93
2022-12-18T16:27:28.305Z,-4.08
2022-12-18T16:29:56.363Z,-3.95
2022-12-18T16:32:24.865Z,-4.15
2022-12-18T16:34:54.209Z,-4.14
2022-12-18T16:37:22.156Z,-4.05
2022-12-18T16:39:50.078Z,-4.06
2022-12-18T16:42:21.182Z,-4.08
2022-12-18T16:44:50.531Z,-3.99
2022-12-18T16:47:19.212Z,-4.08
2022-12-18T16:49:47.300Z,-4.10
2022-12-18T16:52:16.686Z,-4.06
2022-12-18T16:54:46.191Z,-3.99
2022-12-18T16:57:16.098Z,-3.92
2022-12-18T16:59:44.412Z,-3.89
2022-12-18T17:02:17.205Z,-3.78
2022-12-18T17:04:47.847Z,-3.94
2022-12-18T17:07:17.562Z,-4.22
2022-12-18T17:09:45.556Z,-3.96
2022-12-18T17:12:13.688Z,-4.33
2022-12-18T17:14:41.729Z,-4.09
2022-12-18T17:17:25.139Z,-4.06
2022-12-18T17:19:53.702Z,-4.08
2022-12-18T17:22:24.276Z,-3.83
2022-12-18T17:24:52.343Z,-3.95
2022-12-18T17:27:20.407Z,-3.89
2022-12-18T17:29:49.129Z,-3.82
2022-12-18T17:32:17.448Z,-3.77
2022-12-18T17:34:45.406Z,-3.77
2022-12-18T17:37:13.403Z,-3.81
2022-12-18T17:39:43.166Z,-3.87
2022-12-18T17:42:14.852Z,-3.97
2022-12-18T17:44:43.680Z,-4.02
2022-12-18T17:47:13.086Z,-4.04
2022-12-18T17:49:41.262Z,-4.06
2022-12-18T17:52:09.392Z,-4.04
2022-12-18T17:54:39.959Z,-3.94
2022-12-18T17:57:09.583Z,-4.03
2022-12-18T17:59:37.641Z,-4.08
2022-12-18T18:02:05.832Z,-4.15
2022-12-18T18:04:34.454Z,-3.93
2022-12-18T18:07:02.436Z,-4.23
2022-12-18T18:09:30.420Z,-3.97
2022-12-18T18:12:15.760Z,-4.04
2022-12-18T18:14:45.268Z,-3.98
2022-12-18T18:17:13.206Z,-3.92
2022-12-18T18:19:42.179Z,-3.92
2022-12-18T18:22:12.278Z,-3.99
2022-12-18T18:24:43.544Z,-3.88
2022-12-18T18:27:11.597Z,-3.96
2022-12-18T18:29:40.171Z,-3.85
2022-12-18T18:32:09.583Z,-3.87
2022-12-18T18:34:37.714Z,-3.88
2022-12-18T18:37:06.021Z,-3.86
2022-12-18T18:39:34.056Z,-3.81
2022-12-18T18:42:02.034Z,-3.85
2022-12-18T18:44:30.485Z,-3.83
2022-12-18T18:47:00.102Z,-3.80
2022-12-18T18:49:31.908Z,-3.91
2022-12-18T18:52:00.433Z,-3.71
2022-12-18T18:54:29.478Z,-3.83
2022-12-18T18:57:19.868Z,-3.66
2022-12-18T18:59:47.193Z,-3.72
2022-12-18T19:02:16.614Z,-3.76
2022-12-18T19:04:47.022Z,-3.65
2022-12-18T19:07:28.113Z,-3.67
2022-12-18T19:09:58.131Z,-3.65
2022-12-18T19:12:49.174Z,-3.82
2022-12-18T19:15:17.099Z,-3.66
2022-12-18T19:17:47.410Z,-3.75
2022-12-18T19:20:17.555Z,-3.61
2022-12-18T19:22:47.979Z,-3.60
2022-12-18T19:25:26.818Z,-3.60
2022-12-18T19:28:12.059Z,-3.50
2022-12-18T19:30:54.512Z,-3.63
2022-12-18T19:33:42.442Z,-3.65
2022-12-18T19:36:19.360Z,-3.75
2022-12-18T19:38:47.423Z,-3.67
2022-12-18T19:41:16.290Z,-3.63
2022-12-18T19:43:44.789Z,-3.59
2022-12-18T19:46:15.516Z,-3.57
2022-12-18T19:48:44.440Z,-3.61
2022-12-18T19:51:16.991Z,-3.64
2022-12-18T19:53:45.469Z,-3.82
2022-12-18T19:56:15.765Z,-3.78
2022-12-18T19:58:44.796Z,-3.88
2022-12-18T20:01:13.744Z,-3.67
2022-12-18T20:03:49.133Z,-3.81
2022-12-18T20:06:26.703Z,-3.83
2022-12-18T20:08:59.577Z,-3.77
2022-12-18T20:11:28.385Z,-3.73
2022-12-18T20:13:56.343Z,-3.67
2022-12-18T20:16:24.587Z,-3.82
2022-12-18T20:18:52.615Z,-3.70
2022-12-18T20:21:22.373Z,-3.67
2022-12-18T20:23:50.344Z,-3.52
2022-12-18T20:26:18.425Z,-3.51
2022-12-18T20:28:46.525Z,-3.52
2022-12-18T20:31:14.830Z,-3.50
2022-12-18T20:33:46.327Z,-3.53
2022-12-18T20:36:21.175Z,-3.53
2022-12-18T20:38:51.018Z,-3.49
2022-12-18T20:41:21.451Z,-3.51
2022-12-18T20:43:49.802Z,-3.40
2022-12-18T20:46:18.746Z,-3.55
2022-12-18T20:48:47.815Z,-3.61
2022-12-18T20:51:17.991Z,-3.42
2022-12-18T20:53:46.977Z,-3.42
2022-12-18T20:56:21.184Z,-3.37
2022-12-18T20:58:50.551Z,-3.41
2022-12-18T21:01:24.812Z,-3.36
2022-12-18T21:03:53.312Z,-3.26
2022-12-18T21:06:22.878Z,-3.22
2022-12-18T21:08:50.911Z,-3.41
2022-12-18T21:11:42.819Z,-3.28
2022-12-18T21:14:13.082Z,-3.24
2022-12-18T21:16:43.011Z,-3.25
2022-12-18T21:19:11.634Z,-3.26
2022-12-18T21:21:39.944Z,-3.21
2022-12-18T21:24:09.735Z,-3.31
2022-12-18T21:26:45.438Z,-3.28
2022-12-18T21:29:15.866Z,-3.25
2022-12-18T21:31:45.460Z,-3.21
2022-12-18T21:34:17.780Z,-3.27
2022-12-18T21:36:46.263Z,-3.44
2022-12-18T21:39:15.962Z,-3.28
2022-12-18T21:42:03.754Z,-3.66
2022-12-18T21:44:35.701Z,-3.23
2022-12-18T21:47:21.487Z,-3.49
2022-12-18T21:49:52.044Z,-3.29
2022-12-18T21:52:21.574Z,-3.32
2022-12-18T21:54:55.837Z,-3.11
2022-12-18T21:57:25.250Z,-3.25
2022-12-18T21:59:54.723Z,-3.53
2022-12-18T22:02:26.130Z,-3.14
2022-12-18T22:04:54.193Z,-3.12
2022-12-18T22:07:22.639Z,-3.04
2022-12-18T22:09:51.180Z,-3.05
2022-12-18T22:12:35.829Z,-3.10
2022-12-18T22:15:21.818Z,-2.99
2022-12-18T22:17:56.931Z,-3.01
2022-12-18T22:20:29.512Z,-3.02
2022-12-18T22:22:58.269Z,-3.00
2022-12-18T22:25:26.227Z,-2.93
2022-12-18T22:28:08.052Z,-2.90
2022-12-18T22:30:37.456Z,-2.85
2022-12-18T22:33:05.539Z,-2.85
2022-12-18T22:35:33.416Z,-2.88
2022-12-18T22:38:02.677Z,-2.78
2022-12-18T22:40:31.312Z,-2.74
2022-12-18T22:42:59.399Z,-2.68
2022-12-18T22:45:27.967Z,-2.71
2022-12-18T22:47:57.388Z,-2.66
2022-12-18T22:50:25.311Z,-2.58
2022-12-18T22:52:53.277Z,-2.68
2022-12-18T22:55:21.258Z,-2.53
2022-12-18T22:57:50.453Z,-2.54
2022-12-18T23:00:24.157Z,-2.48
2022-12-18T23:02:59.218Z,-2.55
2022-12-18T23:05:30.603Z,-2.65
2022-12-18T23:07:59.574Z,-2.58
2022-12-18T23:10:28.611Z,-2.70
2022-12-18T23:12:56.587Z,-2.63
2022-12-18T23:15:27.731Z,-2.61
2022-12-18T23:17:57.367Z,-2.71
2022-12-18T23:20:25.986Z,-2.62
2022-12-18T23:22:55.441Z,-2.70
2022-12-18T23:25:23.679Z,-2.88
2022-12-18T23:27:51.823Z,-2.70
2022-12-18T23:30:20.290Z,-2.70
2022-12-18T23:32:48.423Z,-2.68
2022-12-18T23:35:16.472Z,-3.07
2022-12-18T23:38:00.726Z,-2.51
2022-12-18T23:40:31.122Z,-2.55
2022-12-18T23:43:00.320Z,-2.50
2022-12-18T23:45:28.275Z,-2.56
2022-12-18T23:47:56.238Z,-2.63
2022-12-18T23:50:29.408Z,-2.57
2022-12-18T23:53:00.678Z,-2.47
2022-12-18T23:55:39.852Z,-2.47
2022-12-18T23:58:08.735Z,-2.48
